createdAt,value
2019-04-25T00:01:47.642Z,74.00
2019-04-25T00:04:21.527Z,69.80
2019-04-25T00:06:54.531Z,71.20
2019-04-25T00:09:31.710Z,68.60
2019-04-25T00:12:04.341Z,72.20
2019-04-25T00:14:35.956Z,74.80
2019-04-25T00:17:07.851Z,73.40
2019-04-25T00:19:40.712Z,64.20
2019-04-25T00:22:39.210Z,71.60
2019-04-25T00:25:42.249Z,70.60
2019-04-25T00:28:12.746Z,68.80
2019-04-25T00:30:44.679Z,75.60
2019-04-25T00:33:16.440Z,73.80
2019-04-25T00:35:48.176Z,77.20
2019-04-25T00:38:20.050Z,78.00
2019-04-25T00:40:55.054Z,76.80
2019-04-25T00:43:28.040Z,76.60
2019-04-25T00:45:59.452Z,75.40
2019-04-25T00:48:32.221Z,77.00
2019-04-25T00:51:03.943Z,78.40
2019-04-25T00:53:35.584Z,77.40
2019-04-25T00:56:07.372Z,76.20
2019-04-25T00:58:54.611Z,79.60
2019-04-25T01:01:48.016Z,79.20
2019-04-25T01:04:21.775Z,81.20
2019-04-25T01:06:53.993Z,79.60
2019-04-25T01:09:26.842Z,79.20
2019-04-25T01:11:59.790Z,82.20
2019-04-25T01:14:31.966Z,80.60
2019-04-25T01:17:05.430Z,81.20
2019-04-25T01:19:38.311Z,87.80
2019-04-25T01:22:10.025Z,90.80
2019-04-25T01:24:43.950Z,85.80
2019-04-25T01:27:16.042Z,89.00
2019-04-25T01:29:48.694Z,84.80
2019-04-25T01:32:30.594Z,87.00
2019-04-25T01:35:13.970Z,95.40
2019-04-25T01:37:54.809Z,92.80
2019-04-25T01:40:44.210Z,91.20
2019-04-25T01:43:37.918Z,87.80
2019-04-25T01:46:11.279Z,84.40
2019-04-25T01:48:43.383Z,88.60
2019-04-25T01:51:17.642Z,83.00
2019-04-25T01:53:49.119Z,82.40
2019-04-25T01:56:21.267Z,91.00
2019-04-25T01:58:55.883Z,79.40
2019-04-25T02:01:28.003Z,80.60
2019-04-25T02:03:59.569Z,80.20
2019-04-25T02:06:33.455Z,77.20
2019-04-25T02:09:08.184Z,77.60
2019-04-25T02:11:59.802Z,73.80
2019-04-25T02:14:33.549Z,84.40
2019-04-25T02:17:05.476Z,79.20
2019-04-25T02:19:37.206Z,80.00
2019-04-25T02:22:10.025Z,88.80
2019-04-25T02:24:43.552Z,81.80
2019-04-25T02:27:15.249Z,79.60
2019-04-25T02:29:46.932Z,88.40
2019-04-25T02:32:20.282Z,86.40
2019-04-25T02:34:55.295Z,82.00
2019-04-25T02:37:25.856Z,76.00
2019-04-25T02:40:00.017Z,80.20
2019-04-25T02:42:30.971Z,77.20
2019-04-25T02:45:17.340Z,79.40
2019-04-25T02:48:07.026Z,81.80
2019-04-25T02:50:56.439Z,82.20
2019-04-25T02:53:36.639Z,85.60
2019-04-25T02:56:26.131Z,78.20
2019-04-25T02:58:39.902Z,76.80
2019-04-25T03:01:19.655Z,81.60
2019-04-25T03:03:46.917Z,83.60
2019-04-25T03:06:19.252Z,69.60
2019-04-25T03:08:54.053Z,77.80
2019-04-25T03:11:24.881Z,79.00
2019-04-25T03:13:57.734Z,80.60
2019-04-25T03:16:29.936Z,79.20
2019-04-25T03:19:17.903Z,80.20
2019-04-25T03:21:51.024Z,81.60
2019-04-25T03:24:24.985Z,75.20
2019-04-25T03:26:56.095Z,77.40
2019-04-25T03:29:27.738Z,75.20
2019-04-25T03:32:01.946Z,76.60
2019-04-25T03:34:34.927Z,78.60
2019-04-25T03:37:06.526Z,77.60
2019-04-25T03:39:39.192Z,78.80
2019-04-25T03:42:10.575Z,78.00
2019-04-25T03:44:43.708Z,74.40
2019-04-25T03:47:15.722Z,78.00
2019-04-25T03:49:48.236Z,81.00
2019-04-25T03:52:20.244Z,78.40
2019-04-25T03:54:53.328Z,74.00
2019-04-25T03:57:26.028Z,72.00
2019-04-25T03:59:58.657Z,71.20
2019-04-25T04:02:31.222Z,76.00
2019-04-25T04:05:05.633Z,77.20
2019-04-25T04:07:37.504Z,68.80
2019-04-25T04:10:12.594Z,77.20
2019-04-25T04:12:46.317Z,71.60
2019-04-25T04:15:19.525Z,78.80
2019-04-25T04:17:58.458Z,77.40
2019-04-25T04:20:44.149Z,75.20
2019-04-25T04:23:23.171Z,77.20
2019-04-25T04:25:55.974Z,78.60
2019-04-25T04:28:28.931Z,77.20
2019-04-25T04:31:01.797Z,70.60
2019-04-25T04:33:34.615Z,78.20
2019-04-25T04:36:07.433Z,77.80
2019-04-25T04:38:39.674Z,78.40
2019-04-25T04:41:13.942Z,79.00
2019-04-25T04:43:46.482Z,75.80
2019-04-25T04:46:19.797Z,77.00
2019-04-25T04:48:54.106Z,78.40
2019-04-25T04:51:26.564Z,75.60
2019-04-25T04:53:58.961Z,78.80
2019-04-25T04:56:34.074Z,74.40
2019-04-25T04:59:06.740Z,73.80
2019-04-25T05:01:44.958Z,74.00
2019-04-25T05:04:25.323Z,72.20
2019-04-25T05:07:25.244Z,79.20
2019-04-25T05:09:58.225Z,77.60
2019-04-25T05:12:30.283Z,77.80
2019-04-25T05:15:03.780Z,79.60
2019-04-25T05:17:36.392Z,76.60
2019-04-25T05:20:09.322Z,79.20
2019-04-25T05:22:41.395Z,73.80
2019-04-25T05:25:16.251Z,77.60
2019-04-25T05:27:59.438Z,80.40
2019-04-25T05:30:28.190Z,77.20
2019-04-25T05:33:00.661Z,77.20
2019-04-25T05:35:33.245Z,75.00
2019-04-25T05:38:05.833Z,74.80
2019-04-25T05:40:51.432Z,73.40
2019-04-25T05:43:24.898Z,74.80
2019-04-25T05:46:00.224Z,76.00
2019-04-25T05:48:33.907Z,76.60
2019-04-25T05:51:05.805Z,73.80
2019-04-25T05:53:37.401Z,75.40
2019-04-25T05:56:09.163Z,73.00
2019-04-25T05:58:43.839Z,70.00
2019-04-25T06:01:15.263Z,71.00
2019-04-25T06:03:47.399Z,71.40
2019-04-25T06:06:21.246Z,76.00
2019-04-25T06:08:59.377Z,71.60
2019-04-25T06:11:47.072Z,73.80
2019-04-25T06:14:19.948Z,73.20
2019-04-25T06:16:53.634Z,74.60
2019-04-25T06:19:43.555Z,73.00
2019-04-25T06:22:20.921Z,69.40
2019-04-25T06:25:00.296Z,73.20
2019-04-25T06:27:35.339Z,69.60
2019-04-25T06:30:16.599Z,75.00
2019-04-25T06:32:48.250Z,74.60
2019-04-25T06:35:21.019Z,73.60
2019-04-25T06:37:53.650Z,72.40
2019-04-25T06:40:29.322Z,72.20
2019-04-25T06:43:01.275Z,73.00
2019-04-25T06:45:56.410Z,70.40
2019-04-25T06:48:59.390Z,69.80
2019-04-25T06:51:50.431Z,68.40
2019-04-25T06:54:25.267Z,72.80
2019-04-25T06:56:55.369Z,72.60
2019-04-25T06:59:28.784Z,70.60
2019-04-25T07:02:04.240Z,64.20
2019-04-25T07:04:36.849Z,70.00
2019-04-25T07:07:12.382Z,69.60
2019-04-25T07:09:43.571Z,67.00
2019-04-25T07:12:16.414Z,66.80
2019-04-25T07:14:48.930Z,61.80
2019-04-25T07:17:21.476Z,64.40
2019-04-25T07:19:54.600Z,63.40
2019-04-25T07:22:26.838Z,65.40
2019-04-25T07:24:59.189Z,58.40
2019-04-25T07:27:46.262Z,65.20
2019-04-25T07:30:45.474Z,62.20
2019-04-25T07:33:16.945Z,62.20
2019-04-25T07:35:49.120Z,55.00
2019-04-25T07:38:21.876Z,48.80
2019-04-25T07:40:53.811Z,47.80
2019-04-25T07:43:25.894Z,48.00
2019-04-25T07:45:57.790Z,45.00
2019-04-25T07:48:30.016Z,35.60
2019-04-25T07:51:03.736Z,39.00
2019-04-25T07:53:36.118Z,39.60
2019-04-25T07:56:08.502Z,40.00
2019-04-25T07:58:51.655Z,46.40
2019-04-25T08:01:17.437Z,40.60
2019-04-25T08:03:49.397Z,42.80
2019-04-25T08:06:22.632Z,38.60
2019-04-25T08:08:54.669Z,37.80
2019-04-25T08:11:28.048Z,36.60
2019-04-25T08:14:14.880Z,41.80
2019-04-25T08:16:49.723Z,38.60
2019-04-25T08:19:24.984Z,42.60
2019-04-25T08:21:59.316Z,38.40
2019-04-25T08:24:33.185Z,39.80
2019-04-25T08:27:06.668Z,42.40
2019-04-25T08:29:39.768Z,40.60
2019-04-25T08:32:14.121Z,37.20
2019-04-25T08:34:46.051Z,34.20
2019-04-25T08:37:21.043Z,29.40
2019-04-25T08:39:53.896Z,35.00
2019-04-25T08:42:25.851Z,35.00
2019-04-25T08:44:57.515Z,36.20
2019-04-25T08:47:31.389Z,41.20
2019-04-25T08:50:26.308Z,41.20
2019-04-25T08:52:47.003Z,36.80
2019-04-25T08:55:45.707Z,36.20
2019-04-25T08:58:31.298Z,38.60
2019-04-25T09:01:24.900Z,34.20
2019-04-25T09:04:08.465Z,37.80
2019-04-25T09:06:40.437Z,40.60
2019-04-25T09:09:13.690Z,36.40
2019-04-25T09:11:46.874Z,38.00
2019-04-25T09:14:19.117Z,31.80
2019-04-25T09:16:53.364Z,31.80
2019-04-25T09:19:26.428Z,34.60
2019-04-25T09:21:58.367Z,33.60
2019-04-25T09:24:30.479Z,32.00
2019-04-25T09:27:03.675Z,36.80
2019-04-25T09:29:36.715Z,32.00
2019-04-25T09:32:09.845Z,35.60
2019-04-25T09:34:41.587Z,32.40
2019-04-25T09:37:14.940Z,33.40
2019-04-25T09:40:11.488Z,28.40
2019-04-25T09:42:45.218Z,38.00
2019-04-25T09:45:35.993Z,34.60
2019-04-25T09:48:24.598Z,30.00
2019-04-25T09:51:05.682Z,30.00
2019-04-25T09:53:44.757Z,34.20
2019-04-25T09:56:27.039Z,35.00
2019-04-25T09:59:05.784Z,33.20
2019-04-25T10:01:40.223Z,30.80
2019-04-25T10:04:12.663Z,32.80
2019-04-25T10:06:45.990Z,26.20
2019-04-25T10:09:18.163Z,30.80
2019-04-25T10:11:50.533Z,31.20
2019-04-25T10:14:47.899Z,29.80
2019-04-25T10:17:20.177Z,33.00
2019-04-25T10:19:52.010Z,29.60
2019-04-25T10:22:23.849Z,24.60
2019-04-25T10:25:00.202Z,31.00
2019-04-25T10:27:29.634Z,34.00
2019-04-25T10:30:14.557Z,26.80
2019-04-25T10:32:35.707Z,23.20
2019-04-25T10:35:08.042Z,26.00
2019-04-25T10:37:39.927Z,30.80
2019-04-25T10:40:13.446Z,25.20
2019-04-25T10:42:47.707Z,31.20
2019-04-25T10:45:23.406Z,35.40
2019-04-25T10:47:53.340Z,34.60
2019-04-25T10:50:25.842Z,30.40
2019-04-25T10:52:57.908Z,35.40
2019-04-25T10:55:29.559Z,32.80
2019-04-25T10:58:01.491Z,30.40
2019-04-25T11:00:37.166Z,32.00
2019-04-25T11:03:31.284Z,32.80
2019-04-25T11:06:03.947Z,31.00
2019-04-25T11:08:36.323Z,33.40
2019-04-25T11:11:08.157Z,29.00
2019-04-25T11:13:41.601Z,33.40
2019-04-25T11:16:14.553Z,28.00
2019-04-25T11:18:47.570Z,28.60
2019-04-25T11:21:19.322Z,34.40
2019-04-25T11:23:51.212Z,37.40
2019-04-25T11:26:23.032Z,35.80
2019-04-25T11:28:54.957Z,45.00
2019-04-25T11:31:33.719Z,32.80
2019-04-25T11:34:10.860Z,37.00
2019-04-25T11:36:42.996Z,35.00
2019-04-25T11:39:34.213Z,32.40
2019-04-25T11:42:15.435Z,36.60
2019-04-25T11:44:47.332Z,35.60
2019-04-25T11:47:19.232Z,30.40
2019-04-25T11:49:51.944Z,31.60
2019-04-25T11:52:28.095Z,35.80
2019-04-25T11:54:57.814Z,35.80
2019-04-25T11:57:29.695Z,32.60
2019-04-25T12:00:01.673Z,35.20
2019-04-25T12:02:35.263Z,32.80
2019-04-25T12:05:07.640Z,31.40
2019-04-25T12:07:39.492Z,37.20
2019-04-25T12:10:13.068Z,30.00
2019-04-25T12:12:47.197Z,37.60
2019-04-25T12:15:18.308Z,35.20
2019-04-25T12:17:50.396Z,39.40
2019-04-25T12:20:22.659Z,40.80
2019-04-25T12:23:06.037Z,36.00
2019-04-25T12:25:28.298Z,36.60
2019-04-25T12:28:00.270Z,43.20
2019-04-25T12:30:39.810Z,41.60
2019-04-25T12:33:18.024Z,37.60
2019-04-25T12:35:39.188Z,38.40
2019-04-25T12:38:11.882Z,40.00
2019-04-25T12:40:43.549Z,33.80
2019-04-25T12:43:15.506Z,45.00
2019-04-25T12:46:21.347Z,42.80
2019-04-25T12:48:53.677Z,43.60
2019-04-25T12:51:25.559Z,38.60
2019-04-25T12:53:58.027Z,32.00
2019-04-25T12:56:31.536Z,42.60
2019-04-25T12:59:04.578Z,43.40
2019-04-25T13:01:36.269Z,40.40
2019-04-25T13:04:09.217Z,41.60
2019-04-25T13:06:40.934Z,45.60
2019-04-25T13:09:14.050Z,46.40
2019-04-25T13:11:46.147Z,47.40
2019-04-25T13:14:18.106Z,44.00
2019-04-25T13:16:49.900Z,37.20
2019-04-25T13:19:25.941Z,43.20
2019-04-25T13:21:55.017Z,41.20
2019-04-25T13:24:26.928Z,33.20
2019-04-25T13:27:04.401Z,43.20
2019-04-25T13:29:57.624Z,43.60
2019-04-25T13:32:58.121Z,48.00
2019-04-25T13:35:37.671Z,46.00
2019-04-25T13:38:09.495Z,47.00
2019-04-25T13:40:41.322Z,46.80
2019-04-25T13:43:12.747Z,51.00
2019-04-25T13:45:44.029Z,51.60
2019-04-25T13:48:15.372Z,49.80
2019-04-25T13:50:47.298Z,48.00
2019-04-25T13:53:19.872Z,50.60
2019-04-25T13:55:52.619Z,48.20
2019-04-25T13:58:24.570Z,48.80
2019-04-25T14:00:57.151Z,50.00
2019-04-25T14:03:29.384Z,47.40
2019-04-25T14:06:00.922Z,52.20
2019-04-25T14:08:33.544Z,45.40
2019-04-25T14:11:05.342Z,45.20
2019-04-25T14:13:38.232Z,44.60
2019-04-25T14:16:28.128Z,46.40
2019-04-25T14:19:17.273Z,43.80
2019-04-25T14:21:49.461Z,41.60
2019-04-25T14:24:22.912Z,42.60
2019-04-25T14:26:55.407Z,41.40
2019-04-25T14:29:28.230Z,43.20
2019-04-25T14:32:00.424Z,40.80
2019-04-25T14:34:33.790Z,44.20
2019-04-25T14:37:06.170Z,44.00
2019-04-25T14:39:38.169Z,40.40
2019-04-25T14:42:10.354Z,43.80
2019-04-25T14:44:42.722Z,43.60
2019-04-25T14:47:15.146Z,42.40
2019-04-25T14:49:47.968Z,43.80
2019-04-25T14:52:20.150Z,42.80
2019-04-25T14:55:16.696Z,40.00
2019-04-25T14:57:48.632Z,38.60
2019-04-25T15:00:28.244Z,33.20
2019-04-25T15:03:00.255Z,43.40
2019-04-25T15:05:31.752Z,38.00
2019-04-25T15:08:16.553Z,46.20
2019-04-25T15:10:48.497Z,43.40
2019-04-25T15:13:20.624Z,46.00
2019-04-25T15:15:52.142Z,48.20
2019-04-25T15:18:24.690Z,47.20
2019-04-25T15:20:56.506Z,46.80
2019-04-25T15:23:28.398Z,40.60
2019-04-25T15:26:00.042Z,44.20
2019-04-25T15:28:32.156Z,43.00
2019-04-25T15:31:04.294Z,45.00
2019-04-25T15:33:36.072Z,43.20
2019-04-25T15:36:14.009Z,38.60
2019-04-25T15:39:01.464Z,46.00
2019-04-25T15:41:48.413Z,46.20
2019-04-25T15:44:43.466Z,46.00
2019-04-25T15:47:18.231Z,30.60
2019-04-25T15:49:50.035Z,42.60
2019-04-25T15:52:21.602Z,43.00
2019-04-25T15:54:53.373Z,40.20
2019-04-25T15:57:25.075Z,44.40
2019-04-25T15:59:56.733Z,44.40
2019-04-25T16:02:28.826Z,37.60
2019-04-25T16:05:00.345Z,42.80
2019-04-25T16:07:31.759Z,42.80
2019-04-25T16:10:03.375Z,39.60
2019-04-25T16:12:37.382Z,44.40
2019-04-25T16:15:09.214Z,41.20
2019-04-25T16:17:40.941Z,48.80
2019-04-25T16:20:12.502Z,42.80
2019-04-25T16:22:45.097Z,43.80
2019-04-25T16:25:16.796Z,47.60
2019-04-25T16:27:49.531Z,47.60
2019-04-25T16:30:23.793Z,40.40
2019-04-25T16:32:55.206Z,40.60
2019-04-25T16:35:26.616Z,43.40
2019-04-25T16:37:58.010Z,46.80
2019-04-25T16:40:29.912Z,42.20
2019-04-25T16:43:03.763Z,45.20
2019-04-25T16:45:37.729Z,42.40
2019-04-25T16:48:10.523Z,42.80
2019-04-25T16:50:42.568Z,42.00
2019-04-25T16:53:14.258Z,48.80
2019-04-25T16:55:47.437Z,39.40
2019-04-25T16:58:19.334Z,48.40
2019-04-25T17:01:07.123Z,48.80
2019-04-25T17:03:39.890Z,51.60
2019-04-25T17:06:11.712Z,55.20
2019-04-25T17:08:43.930Z,55.20
2019-04-25T17:11:15.650Z,56.00
2019-04-25T17:13:54.874Z,61.80
2019-04-25T17:16:47.764Z,62.60
2019-04-25T17:19:26.843Z,63.20
2019-04-25T17:22:00.606Z,60.80
2019-04-25T17:24:32.800Z,60.60
2019-04-25T17:27:05.991Z,64.40
2019-04-25T17:29:37.910Z,64.00
2019-04-25T17:32:53.531Z,62.80
2019-04-25T17:35:39.736Z,69.00
2019-04-25T17:38:33.718Z,60.40
2019-04-25T17:41:05.900Z,66.00
2019-04-25T17:43:38.458Z,62.80
2019-04-25T17:46:11.949Z,60.40
2019-04-25T17:48:43.754Z,64.20
2019-04-25T17:51:15.569Z,64.00
2019-04-25T17:53:47.471Z,65.20
2019-04-25T17:56:19.522Z,62.40
2019-04-25T17:58:51.423Z,63.40
2019-04-25T18:01:25.144Z,56.20
2019-04-25T18:03:58.077Z,61.20
2019-04-25T18:06:29.780Z,61.40
2019-04-25T18:09:05.201Z,60.20
2019-04-25T18:11:38.082Z,63.00
2019-04-25T18:14:10.166Z,58.20
2019-04-25T18:16:45.002Z,62.00
2019-04-25T18:19:27.942Z,62.60
2019-04-25T18:22:05.433Z,54.80
2019-04-25T18:24:57.454Z,53.80
2019-04-25T18:27:33.095Z,59.40
2019-04-25T18:30:06.205Z,62.60
2019-04-25T18:32:39.964Z,58.60
2019-04-25T18:35:23.320Z,62.60
2019-04-25T18:38:02.672Z,62.40
2019-04-25T18:40:44.057Z,56.80
2019-04-25T18:43:28.364Z,60.40
2019-04-25T18:46:06.224Z,62.40
2019-04-25T18:48:38.653Z,59.80
2019-04-25T18:51:11.451Z,60.00
2019-04-25T18:54:05.354Z,61.00
2019-04-25T18:56:50.249Z,55.00
2019-04-25T18:59:36.004Z,57.80
2019-04-25T19:02:41.935Z,59.60
2019-04-25T19:05:29.239Z,62.20
2019-04-25T19:08:01.069Z,61.80
2019-04-25T19:10:32.695Z,60.80
2019-04-25T19:13:12.431Z,57.40
2019-04-25T19:15:38.825Z,58.40
2019-04-25T19:18:11.767Z,61.80
2019-04-25T19:20:43.946Z,56.00
2019-04-25T19:23:15.748Z,55.40
2019-04-25T19:25:47.854Z,60.60
2019-04-25T19:28:20.021Z,56.40
2019-04-25T19:30:52.882Z,52.40
2019-04-25T19:33:35.077Z,57.20
2019-04-25T19:35:58.749Z,52.40
2019-04-25T19:38:31.055Z,55.00
2019-04-25T19:41:21.824Z,53.00
2019-04-25T19:44:03.129Z,54.80
2019-04-25T19:46:42.883Z,58.40
2019-04-25T19:49:14.835Z,55.60
2019-04-25T19:51:47.214Z,50.60
2019-04-25T19:54:20.462Z,46.80
2019-04-25T19:56:53.187Z,53.60
2019-04-25T19:59:24.793Z,60.00
2019-04-25T20:01:58.348Z,54.20
2019-04-25T20:04:53.398Z,55.00
2019-04-25T20:07:35.458Z,54.00
2019-04-25T20:10:24.906Z,57.00
2019-04-25T20:12:57.651Z,60.00
2019-04-25T20:15:29.281Z,56.80
2019-04-25T20:18:03.166Z,54.40
2019-04-25T20:20:35.351Z,58.20
2019-04-25T20:23:07.375Z,48.60
2019-04-25T20:25:39.280Z,57.40
2019-04-25T20:28:11.892Z,56.80
2019-04-25T20:30:45.716Z,57.60
2019-04-25T20:33:18.114Z,60.80
2019-04-25T20:35:51.057Z,55.60
2019-04-25T20:38:22.902Z,52.80
2019-04-25T20:40:56.025Z,51.80
2019-04-25T20:43:27.776Z,59.00
2019-04-25T20:46:00.145Z,56.60
2019-04-25T20:48:31.950Z,57.20
2019-04-25T20:51:04.217Z,55.40
2019-04-25T20:53:36.158Z,51.20
2019-04-25T20:56:07.938Z,58.20
2019-04-25T20:58:40.600Z,58.40
2019-04-25T21:01:14.335Z,59.20
2019-04-25T21:03:45.634Z,60.60
2019-04-25T21:06:23.536Z,56.20
2019-04-25T21:08:55.789Z,61.80
2019-04-25T21:11:27.634Z,56.40
2019-04-25T21:14:35.111Z,57.60
2019-04-25T21:17:10.259Z,63.40
2019-04-25T21:19:44.595Z,62.80
2019-04-25T21:22:19.226Z,69.20
2019-04-25T21:24:51.844Z,68.20
2019-04-25T21:27:23.561Z,69.00
2019-04-25T21:29:55.606Z,70.40
2019-04-25T21:32:27.477Z,71.00
2019-04-25T21:34:59.563Z,73.40
2019-04-25T21:37:31.595Z,72.40
2019-04-25T21:40:14.455Z,74.60
2019-04-25T21:42:53.091Z,71.40
2019-04-25T21:45:25.173Z,69.00
2019-04-25T21:47:57.340Z,76.80
2019-04-25T21:50:29.605Z,76.80
2019-04-25T21:53:01.670Z,73.80
2019-04-25T21:55:35.254Z,65.80
2019-04-25T21:58:07.650Z,55.40
2019-04-25T22:01:02.287Z,60.80
2019-04-25T22:03:36.734Z,56.40
2019-04-25T22:06:09.068Z,55.40
2019-04-25T22:08:44.112Z,59.40
2019-04-25T22:11:16.055Z,60.60
2019-04-25T22:13:49.956Z,50.20
2019-04-25T22:16:23.306Z,62.80
2019-04-25T22:18:55.519Z,57.00
2019-04-25T22:21:37.480Z,59.00
2019-04-25T22:24:08.849Z,52.40
2019-04-25T22:26:35.149Z,57.20
2019-04-25T22:29:07.555Z,62.40
2019-04-25T22:31:53.081Z,56.60
2019-04-25T22:34:31.405Z,58.00
2019-04-25T22:37:04.103Z,54.60
2019-04-25T22:39:35.944Z,63.00
2019-04-25T22:42:07.997Z,60.80
2019-04-25T22:44:40.721Z,60.60
2019-04-25T22:47:14.026Z,63.00
2019-04-25T22:49:46.276Z,62.00
2019-04-25T22:52:18.525Z,57.00
2019-04-25T22:54:50.444Z,60.20
2019-04-25T22:57:25.490Z,53.20
2019-04-25T22:59:57.020Z,59.40
2019-04-25T23:02:35.010Z,62.00
2019-04-25T23:05:18.399Z,57.00
2019-04-25T23:07:50.300Z,62.00
2019-04-25T23:10:22.210Z,62.20
2019-04-25T23:12:55.692Z,58.80
2019-04-25T23:15:27.612Z,62.20
2019-04-25T23:17:59.759Z,62.60
2019-04-25T23:20:31.577Z,62.80
2019-04-25T23:23:04.800Z,59.80
2019-04-25T23:25:56.246Z,64.40
2019-04-25T23:28:32.735Z,63.40
2019-04-25T23:31:17.314Z,63.80
2019-04-25T23:33:49.225Z,60.60
2019-04-25T23:36:21.708Z,67.60
2019-04-25T23:38:53.415Z,61.20
2019-04-25T23:41:28.652Z,59.00
2019-04-25T23:44:00.512Z,62.20
2019-04-25T23:46:32.752Z,61.40
2019-04-25T23:49:04.934Z,56.40
2019-04-25T23:51:36.917Z,61.00
2019-04-25T23:54:08.929Z,63.40
2019-04-25T23:56:40.980Z,63.80
2019-04-25T23:59:13.559Z,66.20
